createdAt,value
2022-11-19T00:01:34.271Z,101399.38
2022-11-19T00:04:02.062Z,101390.63
2022-11-19T00:06:29.769Z,101381.34
2022-11-19T00:08:59.263Z,101383.31
2022-11-19T00:11:46.927Z,101355.75
2022-11-19T00:14:16.738Z,101382.03
2022-11-19T00:16:45.598Z,101382.31
2022-11-19T00:19:14.680Z,101397.88
2022-11-19T00:21:42.404Z,101386.03
2022-11-19T00:24:10.414Z,101332.97
2022-11-19T00:26:39.484Z,101397.38
2022-11-19T00:29:07.232Z,101388.59
2022-11-19T00:31:34.928Z,101373.19
2022-11-19T00:34:02.604Z,101409.00
2022-11-19T00:36:30.731Z,101401.25
2022-11-19T00:38:58.454Z,101355.34
2022-11-19T00:41:26.151Z,101341.16
2022-11-19T00:43:55.757Z,101400.66
2022-11-19T00:46:25.396Z,101391.38
2022-11-19T00:48:54.885Z,101380.16
2022-11-19T00:51:27.041Z,101404.06
2022-11-19T00:53:55.070Z,101403.84
2022-11-19T00:56:25.598Z,101407.47
2022-11-19T00:58:55.130Z,101407.28
2022-11-19T01:01:25.134Z,101418.38
2022-11-19T01:03:54.137Z,101409.13
2022-11-19T01:06:24.466Z,101418.47
2022-11-19T01:08:53.946Z,101398.78
2022-11-19T01:11:24.283Z,101406.13
2022-11-19T01:13:52.064Z,101413.50
2022-11-19T01:16:23.529Z,101408.06
2022-11-19T01:18:52.194Z,101423.06
2022-11-19T01:21:22.054Z,101358.06
2022-11-19T01:23:49.989Z,101409.13
2022-11-19T01:26:18.549Z,101414.13
2022-11-19T01:28:46.742Z,101422.25
2022-11-19T01:31:16.815Z,101443.28
2022-11-19T01:33:46.448Z,101431.28
2022-11-19T01:36:17.030Z,101428.56
2022-11-19T01:38:50.513Z,101404.19
2022-11-19T01:41:18.889Z,101423.06
2022-11-19T01:43:49.387Z,101422.00
2022-11-19T01:46:18.930Z,101415.81
2022-11-19T01:48:53.252Z,101419.16
2022-11-19T01:51:23.983Z,101402.94
2022-11-19T01:53:53.909Z,101418.91
2022-11-19T01:56:23.700Z,101438.41
2022-11-19T01:58:56.271Z,101434.03
2022-11-19T02:01:24.477Z,101430.94
2022-11-19T02:03:54.087Z,101425.91
2022-11-19T02:06:22.506Z,101413.47
2022-11-19T02:08:51.668Z,101387.13
2022-11-19T02:11:36.623Z,101453.13
2022-11-19T02:14:17.199Z,101446.56
2022-11-19T02:16:53.322Z,101450.84
2022-11-19T02:19:40.877Z,101442.00
2022-11-19T02:22:23.855Z,101438.97
2022-11-19T02:24:54.916Z,101443.09
2022-11-19T02:28:00.921Z,101461.38
2022-11-19T02:30:36.221Z,101464.97
2022-11-19T02:33:08.236Z,101462.09
2022-11-19T02:35:49.458Z,101474.19
2022-11-19T02:38:26.661Z,101484.84
2022-11-19T02:40:59.190Z,101471.56
2022-11-19T02:43:33.983Z,101469.28
2022-11-19T02:46:09.737Z,101468.19
2022-11-19T02:48:40.254Z,101472.19
2022-11-19T02:51:09.127Z,101494.00
2022-11-19T02:53:37.097Z,101490.09
2022-11-19T02:56:13.789Z,101487.47
2022-11-19T02:59:04.544Z,101479.59
2022-11-19T03:01:57.066Z,101475.94
2022-11-19T03:04:32.879Z,101482.00
2022-11-19T03:07:05.875Z,101504.84
2022-11-19T03:09:37.047Z,101473.00
2022-11-19T03:12:15.263Z,101467.66
2022-11-19T03:15:07.902Z,101436.03
2022-11-19T03:17:52.514Z,101483.84
2022-11-19T03:20:26.265Z,101462.84
2022-11-19T03:22:59.099Z,101472.00
2022-11-19T03:25:29.901Z,101457.22
2022-11-19T03:28:02.486Z,101479.50
2022-11-19T03:30:31.917Z,101442.63
2022-11-19T03:33:03.951Z,101494.16
2022-11-19T03:35:44.671Z,101486.75
2022-11-19T03:38:17.733Z,101481.19
2022-11-19T03:40:46.111Z,101466.78
2022-11-19T03:43:19.230Z,101490.72
2022-11-19T03:45:49.680Z,101498.38
2022-11-19T03:48:22.545Z,101492.91
2022-11-19T03:50:53.607Z,101494.06
2022-11-19T03:53:22.289Z,101502.50
2022-11-19T03:55:55.961Z,101438.28
2022-11-19T03:58:26.095Z,101504.38
2022-11-19T04:00:54.733Z,101504.25
2022-11-19T04:03:23.924Z,101494.53
2022-11-19T04:05:51.576Z,101504.91
2022-11-19T04:08:19.305Z,101504.97
2022-11-19T04:10:47.005Z,101505.59
2022-11-19T04:13:14.774Z,101512.59
2022-11-19T04:15:43.102Z,101395.44
2022-11-19T04:18:10.780Z,101501.31
2022-11-19T04:20:39.867Z,101493.56
2022-11-19T04:23:07.574Z,101492.53
2022-11-19T04:25:35.271Z,101500.53
2022-11-19T04:28:02.920Z,101498.78
2022-11-19T04:30:31.009Z,101505.53
2022-11-19T04:32:58.683Z,101500.94
2022-11-19T04:35:26.472Z,101506.19
2022-11-19T04:37:55.596Z,101499.00
2022-11-19T04:40:23.389Z,101498.88
2022-11-19T04:42:51.075Z,101497.47
2022-11-19T04:45:19.100Z,101494.91
2022-11-19T04:47:47.680Z,101481.91
2022-11-19T04:50:15.612Z,101485.47
2022-11-19T04:52:43.360Z,101483.66
2022-11-19T04:55:12.580Z,101493.00
2022-11-19T04:57:40.440Z,101500.53
2022-11-19T05:00:09.552Z,101496.81
2022-11-19T05:02:37.522Z,101499.19
2022-11-19T05:05:05.835Z,101498.84
2022-11-19T05:07:33.672Z,101498.66
2022-11-19T05:10:01.511Z,101496.16
2022-11-19T05:12:30.583Z,101505.16
2022-11-19T05:14:58.379Z,101491.88
2022-11-19T05:17:26.106Z,101497.03
2022-11-19T05:19:53.755Z,101503.75
2022-11-19T05:22:21.506Z,101502.25
2022-11-19T05:24:49.275Z,101498.84
2022-11-19T05:27:17.000Z,101500.22
2022-11-19T05:29:46.694Z,101479.31
2022-11-19T05:32:14.501Z,101404.13
2022-11-19T05:34:42.224Z,101486.47
2022-11-19T05:37:09.991Z,101498.66
2022-11-19T05:39:37.823Z,101501.72
2022-11-19T05:42:05.726Z,101494.09
2022-11-19T05:44:33.564Z,101507.00
2022-11-19T05:47:02.759Z,101515.81
2022-11-19T05:49:30.569Z,101519.22
2022-11-19T05:51:58.305Z,101518.25
2022-11-19T05:54:26.131Z,101517.88
2022-11-19T05:56:54.089Z,101523.34
2022-11-19T05:59:22.211Z,101518.56
2022-11-19T06:01:50.348Z,101503.16
2022-11-19T06:04:19.949Z,101522.16
2022-11-19T06:06:47.676Z,101529.00
2022-11-19T06:09:15.879Z,101514.53
2022-11-19T06:11:50.506Z,101515.22
2022-11-19T06:14:21.977Z,101507.59
2022-11-19T06:16:49.742Z,101501.97
2022-11-19T06:19:19.164Z,101519.59
2022-11-19T06:21:47.758Z,101503.84
2022-11-19T06:24:15.947Z,101497.97
2022-11-19T06:26:44.029Z,101503.97
2022-11-19T06:29:14.943Z,101430.28
2022-11-19T06:31:43.441Z,101512.91
2022-11-19T06:34:11.624Z,101528.50
2022-11-19T06:36:43.930Z,101531.56
2022-11-19T06:39:15.795Z,101527.06
2022-11-19T06:41:43.636Z,101512.22
2022-11-19T06:44:11.400Z,101528.22
2022-11-19T06:46:39.469Z,101505.50
2022-11-19T06:49:07.355Z,101523.91
2022-11-19T06:51:35.125Z,101536.88
2022-11-19T06:54:04.540Z,101512.69
2022-11-19T06:56:32.267Z,101543.84
2022-11-19T06:59:00.179Z,101533.94
2022-11-19T07:01:28.090Z,101543.03
2022-11-19T07:03:56.035Z,101493.19
2022-11-19T07:06:23.900Z,101514.38
2022-11-19T07:08:51.715Z,101519.97
2022-11-19T07:11:29.431Z,101508.50
2022-11-19T07:13:58.764Z,101501.84
2022-11-19T07:16:28.909Z,101520.31
2022-11-19T07:18:59.576Z,101528.28
2022-11-19T07:21:28.741Z,101415.25
2022-11-19T07:23:57.117Z,101529.44
2022-11-19T07:26:26.803Z,101521.63
2022-11-19T07:28:54.920Z,101522.63
2022-11-19T07:31:24.774Z,101556.16
2022-11-19T07:33:52.537Z,101545.72
2022-11-19T07:36:20.342Z,101522.03
2022-11-19T07:38:48.174Z,101511.06
2022-11-19T07:41:33.241Z,101476.94
2022-11-19T07:44:02.446Z,101501.16
2022-11-19T07:46:30.239Z,101494.38
2022-11-19T07:48:58.999Z,101461.72
2022-11-19T07:51:27.379Z,101474.41
2022-11-19T07:53:57.006Z,101455.94
2022-11-19T07:56:25.550Z,101470.31
2022-11-19T07:58:53.431Z,101458.56
2022-11-19T08:01:24.692Z,101468.22
2022-11-19T08:03:56.632Z,101455.34
2022-11-19T08:06:26.791Z,101455.34
2022-11-19T08:08:55.704Z,101451.66
2022-11-19T08:11:24.197Z,101451.81
2022-11-19T08:13:52.265Z,101441.44
2022-11-19T08:16:34.344Z,101438.75
2022-11-19T08:19:04.251Z,101439.59
2022-11-19T08:21:32.004Z,101430.78
2022-11-19T08:23:59.741Z,101424.81
2022-11-19T08:26:27.455Z,101425.13
2022-11-19T08:28:55.281Z,101422.75
2022-11-19T08:31:23.007Z,101434.81
2022-11-19T08:33:50.765Z,101431.94
2022-11-19T08:36:20.099Z,101417.63
2022-11-19T08:38:47.837Z,101435.41
2022-11-19T08:41:32.922Z,101428.09
2022-11-19T08:44:00.671Z,101432.44
2022-11-19T08:46:28.469Z,101417.91
2022-11-19T08:48:56.252Z,101436.72
2022-11-19T08:51:25.571Z,101440.06
2022-11-19T08:53:53.582Z,101370.81
2022-11-19T08:56:21.847Z,101432.69
2022-11-19T08:58:49.786Z,101439.81
2022-11-19T09:01:18.690Z,101440.28
2022-11-19T09:03:46.726Z,101433.66
2022-11-19T09:06:14.431Z,101437.47
2022-11-19T09:08:44.096Z,101442.16
2022-11-19T09:11:14.842Z,101444.84
2022-11-19T09:13:42.916Z,101448.13
2022-11-19T09:16:11.874Z,101436.88
2022-11-19T09:18:41.877Z,101439.09
2022-11-19T09:21:11.682Z,101451.00
2022-11-19T09:23:41.326Z,101460.03
2022-11-19T09:26:13.394Z,101462.53
2022-11-19T09:28:41.412Z,101467.72
2022-11-19T09:31:11.875Z,101474.69
2022-11-19T09:33:42.451Z,101467.38
2022-11-19T09:36:11.506Z,101466.50
2022-11-19T09:38:40.402Z,101473.19
2022-11-19T09:41:27.912Z,101473.03
2022-11-19T09:44:01.641Z,101473.91
2022-11-19T09:46:38.834Z,101481.72
2022-11-19T09:49:11.865Z,101481.84
2022-11-19T09:51:43.463Z,101475.88
2022-11-19T09:54:17.106Z,101481.06
2022-11-19T09:56:50.130Z,101483.66
2022-11-19T09:59:26.065Z,101483.66
2022-11-19T10:01:55.010Z,101488.81
2022-11-19T10:04:24.869Z,101482.91
2022-11-19T10:07:03.616Z,101479.84
2022-11-19T10:09:42.411Z,101472.09
2022-11-19T10:12:25.759Z,101474.59
2022-11-19T10:15:17.283Z,101474.72
2022-11-19T10:17:58.945Z,101442.78
2022-11-19T10:20:42.506Z,101470.13
2022-11-19T10:23:18.067Z,101478.78
2022-11-19T10:25:47.613Z,101440.50
2022-11-19T10:28:20.819Z,101465.72
2022-11-19T10:30:52.834Z,101466.34
2022-11-19T10:33:28.717Z,101422.22
2022-11-19T10:36:00.828Z,101463.31
2022-11-19T10:38:34.055Z,101463.56
2022-11-19T10:41:06.263Z,101458.44
2022-11-19T10:43:41.716Z,101463.13
2022-11-19T10:46:13.718Z,101424.44
2022-11-19T10:48:44.275Z,101451.28
2022-11-19T10:51:15.036Z,101439.47
2022-11-19T10:53:42.802Z,101445.81
2022-11-19T10:56:15.404Z,101431.09
2022-11-19T10:58:48.153Z,101437.25
2022-11-19T11:01:23.492Z,101432.00
2022-11-19T11:03:56.181Z,101439.88
2022-11-19T11:06:23.889Z,101424.97
2022-11-19T11:08:52.969Z,101425.19
2022-11-19T11:11:26.133Z,101423.31
2022-11-19T11:14:12.881Z,101424.34
2022-11-19T11:16:46.683Z,101432.19
2022-11-19T11:19:18.268Z,101428.13
2022-11-19T11:21:47.026Z,101412.66
2022-11-19T11:24:15.281Z,101410.94
2022-11-19T11:26:43.034Z,101411.69
2022-11-19T11:32:27.119Z,101405.72
2022-11-19T11:34:54.735Z,101409.44
2022-11-19T11:37:22.867Z,101407.13
2022-11-19T11:39:55.074Z,101393.91
2022-11-19T11:42:26.550Z,101396.63
2022-11-19T11:44:57.027Z,101384.09
2022-11-19T11:47:29.393Z,101374.13
2022-11-19T11:50:05.831Z,101377.28
2022-11-19T11:52:38.469Z,101372.22
2022-11-19T11:55:08.134Z,101364.09
2022-11-19T11:57:37.718Z,101373.53
2022-11-19T12:00:29.993Z,101378.91
2022-11-19T12:03:03.856Z,101372.34
2022-11-19T12:05:44.052Z,101369.78
2022-11-19T12:08:25.561Z,101362.09
2022-11-19T12:11:01.675Z,101365.75
2022-11-19T12:13:54.800Z,101355.13
2022-11-19T12:16:44.605Z,101338.69
2022-11-19T12:19:29.871Z,101339.56
2022-11-19T12:22:08.409Z,101356.16
2022-11-19T12:24:52.093Z,101351.00
2022-11-19T12:27:29.194Z,101351.81
2022-11-19T12:30:05.545Z,101349.44
2022-11-19T12:32:57.274Z,101356.94
2022-11-19T12:35:41.315Z,101355.53
2022-11-19T12:38:24.965Z,101339.03
2022-11-19T12:41:01.564Z,101341.41
2022-11-19T12:43:48.371Z,101345.03
2022-11-19T12:46:26.241Z,101350.38
2022-11-19T12:49:08.291Z,101331.22
2022-11-19T12:51:47.833Z,101335.66
2022-11-19T12:54:34.698Z,101346.22
2022-11-19T12:57:17.451Z,101333.38
2022-11-19T13:00:04.283Z,101346.22
2022-11-19T13:02:37.238Z,101342.94
2022-11-19T13:05:13.426Z,101299.75
2022-11-19T13:07:48.300Z,101339.38
2022-11-19T13:10:19.514Z,101336.88
2022-11-19T13:12:51.020Z,101345.56
2022-11-19T13:15:22.152Z,101335.19
2022-11-19T13:17:53.921Z,101338.75
2022-11-19T13:20:27.476Z,101292.31
2022-11-19T13:23:00.773Z,101328.44
2022-11-19T13:25:32.749Z,101332.63
2022-11-19T13:28:04.421Z,101338.63
2022-11-19T13:30:34.949Z,101321.66
2022-11-19T13:33:12.449Z,101335.38
2022-11-19T13:35:46.708Z,101326.81
2022-11-19T13:38:19.293Z,101326.94
2022-11-19T13:40:52.060Z,101318.38
2022-11-19T13:43:39.887Z,101312.88
2022-11-19T13:46:19.257Z,101320.78
2022-11-19T13:48:54.387Z,101311.38
2022-11-19T13:51:31.329Z,101314.84
2022-11-19T13:54:03.641Z,101307.03
2022-11-19T13:56:41.749Z,101283.88
2022-11-19T13:59:25.292Z,101307.09
2022-11-19T14:02:05.495Z,101301.03
2022-11-19T14:04:59.451Z,101306.19
2022-11-19T14:07:45.156Z,101301.06
2022-11-19T14:10:24.416Z,101301.09
2022-11-19T14:13:20.579Z,101298.53
2022-11-19T14:16:15.868Z,101294.69
2022-11-19T14:19:05.359Z,101303.13
2022-11-19T14:22:12.239Z,101306.34
2022-11-19T14:25:16.568Z,101307.31
2022-11-19T14:27:45.699Z,101318.53
2022-11-19T14:30:20.367Z,101321.03
2022-11-19T14:32:51.089Z,101319.53
2022-11-19T14:35:36.360Z,101314.41
2022-11-19T14:38:34.152Z,101317.06
2022-11-19T14:41:19.420Z,101316.13
2022-11-19T14:44:10.995Z,101305.50
2022-11-19T14:46:41.205Z,101304.44
2022-11-19T14:49:24.027Z,101300.50
2022-11-19T14:51:55.027Z,101313.44
2022-11-19T14:54:38.094Z,101318.47
2022-11-19T14:57:09.938Z,101320.25
2022-11-19T14:59:39.831Z,101316.84
2022-11-19T15:02:24.041Z,101319.44
2022-11-19T15:04:57.831Z,101326.38
2022-11-19T15:07:50.097Z,101315.88
2022-11-19T15:10:30.153Z,101312.59
2022-11-19T15:13:24.767Z,101306.53
2022-11-19T15:15:57.436Z,101296.09
2022-11-19T15:18:59.503Z,101301.25
2022-11-19T15:21:49.856Z,101296.94
2022-11-19T15:24:31.289Z,101303.78
2022-11-19T15:27:08.788Z,101278.03
2022-11-19T15:29:57.997Z,101296.03
2022-11-19T15:32:42.069Z,101290.84
2022-11-19T15:35:31.774Z,101282.94
2022-11-19T15:38:05.334Z,101271.69
2022-11-19T15:40:35.088Z,101288.28
2022-11-19T15:43:10.127Z,101272.59
2022-11-19T15:45:42.180Z,101267.44
2022-11-19T15:48:17.183Z,101278.47
2022-11-19T15:50:45.577Z,101272.34
2022-11-19T15:53:18.787Z,101278.94
2022-11-19T15:55:54.737Z,101287.84
2022-11-19T15:58:26.844Z,101285.94
2022-11-19T16:00:56.322Z,101272.00
2022-11-19T16:03:25.799Z,101276.31
2022-11-19T16:06:03.711Z,101278.03
2022-11-19T16:08:32.159Z,101272.56
2022-11-19T16:11:20.456Z,101273.53
2022-11-19T16:14:10.339Z,101270.91
2022-11-19T16:16:56.236Z,101274.41
2022-11-19T16:19:25.508Z,101264.31
2022-11-19T16:21:58.615Z,101274.53
2022-11-19T16:24:45.952Z,101265.13
2022-11-19T16:27:19.460Z,101268.69
2022-11-19T16:29:47.626Z,101262.81
2022-11-19T16:32:17.935Z,101256.97
2022-11-19T16:34:47.758Z,101255.16
2022-11-19T16:37:17.720Z,101243.44
2022-11-19T16:39:52.306Z,101255.41
2022-11-19T16:42:26.723Z,101257.97
2022-11-19T16:44:56.353Z,101247.53
2022-11-19T16:47:29.883Z,101251.91
2022-11-19T16:50:02.332Z,101256.00
2022-11-19T16:52:38.065Z,101251.94
2022-11-19T16:55:26.773Z,101253.50
2022-11-19T16:57:57.012Z,101247.19
2022-11-19T17:00:28.292Z,101247.22
2022-11-19T17:02:56.072Z,101260.22
2022-11-19T17:05:28.767Z,101220.00
2022-11-19T17:08:05.873Z,101248.19
2022-11-19T17:10:35.399Z,101252.63
2022-11-19T17:13:04.705Z,101264.97
2022-11-19T17:15:39.448Z,101255.22
2022-11-19T17:18:17.561Z,101262.81
2022-11-19T17:20:56.922Z,101251.97
2022-11-19T17:23:26.558Z,101246.50
2022-11-19T17:25:59.663Z,101243.56
2022-11-19T17:28:35.091Z,101253.75
2022-11-19T17:31:06.022Z,101253.19
2022-11-19T17:33:36.639Z,101255.81
2022-11-19T17:36:13.787Z,101251.50
2022-11-19T17:38:41.377Z,101255.97
2022-11-19T17:41:15.572Z,101243.78
2022-11-19T17:44:00.929Z,101261.09
2022-11-19T17:46:30.212Z,101268.09
2022-11-19T17:48:58.163Z,101264.34
2022-11-19T17:51:27.815Z,101272.03
2022-11-19T17:53:57.874Z,101260.13
2022-11-19T17:56:27.740Z,101273.41
2022-11-19T17:58:55.713Z,101262.34
2022-11-19T18:01:24.168Z,101271.22
2022-11-19T18:03:51.913Z,101264.25
2022-11-19T18:06:19.570Z,101261.56
2022-11-19T18:08:48.669Z,101259.06
2022-11-19T18:11:18.774Z,101249.31
2022-11-19T18:13:47.386Z,101248.94
2022-11-19T18:16:17.631Z,101257.84
2022-11-19T18:18:45.306Z,101230.50
2022-11-19T18:21:14.598Z,101261.47
2022-11-19T18:23:43.152Z,101267.41
2022-11-19T18:26:12.965Z,101265.97
2022-11-19T18:28:43.755Z,101264.41
2022-11-19T18:31:17.031Z,101269.38
2022-11-19T18:33:45.330Z,101265.38
2022-11-19T18:36:12.922Z,101263.69
2022-11-19T18:38:40.527Z,101263.09
2022-11-19T18:41:10.344Z,101253.59
2022-11-19T18:43:56.703Z,101237.19
2022-11-19T18:46:24.378Z,101245.56
2022-11-19T18:48:53.502Z,101246.50
2022-11-19T18:51:21.327Z,101255.56
2022-11-19T18:53:49.436Z,101255.53
2022-11-19T18:56:18.527Z,101255.75
2022-11-19T18:58:47.519Z,101248.31
2022-11-19T19:01:16.477Z,101257.00
2022-11-19T19:03:44.655Z,101256.03
2022-11-19T19:06:12.527Z,101249.66
2022-11-19T19:08:40.336Z,101265.47
2022-11-19T19:11:27.340Z,101276.09
2022-11-19T19:13:56.358Z,101254.97
2022-11-19T19:16:24.171Z,101209.91
2022-11-19T19:18:51.881Z,101267.91
2022-11-19T19:21:21.883Z,101257.88
2022-11-19T19:23:50.165Z,101267.94
2022-11-19T19:26:19.075Z,101274.03
2022-11-19T19:28:49.830Z,101259.78
2022-11-19T19:31:19.142Z,101263.66
2022-11-19T19:33:47.143Z,101273.41
2022-11-19T19:36:15.750Z,101272.97
2022-11-19T19:38:43.834Z,101274.31
2022-11-19T19:41:15.362Z,101278.66
2022-11-19T19:43:43.024Z,101282.22
2022-11-19T19:46:15.717Z,101277.88
2022-11-19T19:48:45.959Z,101281.47
2022-11-19T19:51:14.535Z,101275.50
2022-11-19T19:53:42.717Z,101278.06
2022-11-19T19:56:14.187Z,101274.34
2022-11-19T19:58:43.655Z,101277.19
2022-11-19T20:01:13.051Z,101282.09
2022-11-19T20:03:41.001Z,101281.22
2022-11-19T20:06:11.715Z,101277.91
2022-11-19T20:08:40.106Z,101276.09
2022-11-19T20:11:09.719Z,101275.41
2022-11-19T20:13:39.586Z,101266.81
2022-11-19T20:16:14.591Z,101263.44
2022-11-19T20:18:45.565Z,101266.09
2022-11-19T20:21:16.796Z,101094.53
2022-11-19T20:23:44.927Z,101269.50
2022-11-19T20:26:14.607Z,101259.63
2022-11-19T20:28:42.999Z,101258.38
2022-11-19T20:31:12.672Z,101265.34
2022-11-19T20:33:41.525Z,101262.00
2022-11-19T20:36:16.355Z,101254.19
2022-11-19T20:38:46.039Z,101257.41
2022-11-19T20:41:29.805Z,101260.50
2022-11-19T20:44:15.290Z,101264.25
2022-11-19T20:46:43.429Z,101259.13
2022-11-19T20:49:16.888Z,101216.31
2022-11-19T20:51:47.097Z,101250.00
2022-11-19T20:54:14.826Z,101255.19
2022-11-19T20:56:43.102Z,101249.03
2022-11-19T20:59:12.164Z,101248.38
2022-11-19T21:01:39.976Z,101236.91
2022-11-19T21:04:08.529Z,101234.56
2022-11-19T21:06:36.268Z,101237.00
2022-11-19T21:09:05.687Z,101233.63
2022-11-19T21:11:34.098Z,101240.53
2022-11-19T21:14:01.748Z,101232.03
2022-11-19T21:16:29.930Z,101203.97
2022-11-19T21:18:57.975Z,101221.09
2022-11-19T21:21:25.907Z,101226.09
2022-11-19T21:23:54.564Z,101226.13
2022-11-19T21:26:25.268Z,101220.09
2022-11-19T21:28:54.785Z,101209.09
2022-11-19T21:31:37.703Z,101216.78
2022-11-19T21:34:06.200Z,101208.47
2022-11-19T21:36:33.830Z,101204.06
2022-11-19T21:39:01.725Z,101202.25
2022-11-19T21:41:30.735Z,101204.16
2022-11-19T21:43:58.361Z,101201.66
2022-11-19T21:46:25.966Z,101192.88
2022-11-19T21:48:54.022Z,101193.94
2022-11-19T21:51:24.867Z,101190.41
2022-11-19T21:53:54.619Z,101183.53
2022-11-19T21:56:22.339Z,101186.22
2022-11-19T21:58:51.368Z,101181.66
2022-11-19T22:01:19.113Z,101187.72
2022-11-19T22:03:46.891Z,101177.63
2022-11-19T22:06:14.706Z,101179.19
2022-11-19T22:08:42.902Z,101174.91
2022-11-19T22:11:30.018Z,101186.13
2022-11-19T22:14:00.942Z,101181.75
2022-11-19T22:16:28.922Z,101172.34
2022-11-19T22:18:56.518Z,101171.38
2022-11-19T22:21:24.206Z,101172.28
2022-11-19T22:23:52.760Z,101161.97
2022-11-19T22:26:20.557Z,101162.53
2022-11-19T22:28:48.152Z,101165.34
2022-11-19T22:31:17.195Z,101165.19
2022-11-19T22:33:44.831Z,101167.16
2022-11-19T22:36:12.807Z,101177.56
2022-11-19T22:38:40.729Z,101167.06
2022-11-19T22:41:10.391Z,101172.38
2022-11-19T22:43:39.284Z,101168.03
2022-11-19T22:46:07.097Z,101171.41
2022-11-19T22:48:36.639Z,101168.00
2022-11-19T22:51:07.483Z,101148.78
2022-11-19T22:53:35.586Z,101177.31
2022-11-19T22:56:03.807Z,101176.50
2022-11-19T22:58:31.392Z,101172.22
2022-11-19T23:00:59.064Z,101174.97
2022-11-19T23:03:26.851Z,101177.50
2022-11-19T23:05:56.802Z,101163.53
2022-11-19T23:08:24.502Z,101168.81
2022-11-19T23:10:58.171Z,101152.47
2022-11-19T23:13:34.486Z,101157.63
2022-11-19T23:16:05.622Z,101153.31
2022-11-19T23:18:35.628Z,101109.38
2022-11-19T23:21:07.481Z,101161.47
2022-11-19T23:23:35.658Z,101158.31
2022-11-19T23:26:04.437Z,101080.06
2022-11-19T23:28:33.839Z,101146.38
2022-11-19T23:31:04.834Z,101144.59
2022-11-19T23:33:32.720Z,101145.03
2022-11-19T23:36:06.475Z,101140.56
2022-11-19T23:38:36.290Z,101136.22
2022-11-19T23:41:05.653Z,101135.44
2022-11-19T23:43:34.297Z,101139.78
2022-11-19T23:46:06.028Z,101133.66
2022-11-19T23:48:34.494Z,101124.25
2022-11-19T23:51:03.305Z,101124.16
2022-11-19T23:53:32.549Z,101129.25
2022-11-19T23:56:00.619Z,101136.31
2022-11-19T23:58:28.753Z,101130.31
